NWS Home NWS Lubbock West Texas Mesonet South Sector Latest Conditions as of 0455 AM, Sat May 26, 2018

Latest   N   C   S   Daily Sum   3hrΔ   24hrΔ   Soil Data 
Site Map   24hr Precip   72hr Precip   Google Plot


Station Time of Last Temp Dew Pt. RH Wind Direction Wind Speed Wind Gust Max Wind Max Temp Min Temp Max RH Min RH Altimeter 1HR Rain Today's Rain Solar Rad
Andrews 2E  04:50 AM 72 56 57% SE710 16 mph 117° @ 0410 AM 80 72 57 43 29.92" 0 0.00 0
Aspermont 3NE  04:50 AM 70 56 63% SW45 28 mph 147° @ 1205 AM 75 69 64 51 29.82" 0 0.00 0
Big Bend NP - Persimmon Gap  04:50 AM 75 56 50% NE1213 14 mph 23° @ 0427 AM 81 75 50 31 29.92" 0 0.00 0
Big Lake 1WNW  04:50 AM 74 62 66% S1113 22 mph 156° @ 0143 AM 80 74 66 51 29.91" 0 0.00 0
Brownfield 2S  04:50 AM 71 58 66% S1012 17 mph 154° @ 0340 AM 79 70 67 34 29.91" 0 0.00 0
Clyde 2WNW  04:50 AM 75 54 48% S1519 23 mph 175° @ 0143 AM 75 65 87 48 29.84" 0 0.01 0
Colorado City 5NW  04:50 AM 71 59 65% S79 26 mph 121° @ 1218 AM 83 71 65 43 29.89" 0 0.00 0
Coyanosa 2N  04:50 AM 75 57 53% SE1114 15 mph 122° @ 0446 AM 84 72 53 33 29.86" 0 0.00 0
Dell City  04:50 AM 59 20 22% SW45 13 mph 280° @ 0308 AM 73 58 34 11 29.94" 0 0.00 0
Denver City 7WNW  04:50 AM 64 52 68% E1015 15 mph 155° @ 0105 AM 76 64 68 15 29.92" 0 0.00 0
Fluvanna 3WNW  04:50 AM 71 57 64% S1621 25 mph 171° @ 0355 AM 76 71 64 44 29.89" 0 0.00 0
Fort Chadbourne  04:50 AM 65 57 75% S12 25 mph 106° @ 1238 AM 77 65 76 54 29.88" 0 0.00 0
Fort Lancaster  04:50 AM 78 62 58% SE35 23 mph 126° @ 0127 AM 84 77 60 50 29.87" 0 0.00 0
Fort McKavett  04:50 AM 73 64 73% SE710 18 mph 153° @ 1214 AM 80 72 73 51 29.91" 0 0.00 0
Gail 2ESE  04:50 AM 70 59 70% SE68 16 mph 139° @ 0235 AM 82 70 70 42 29.89" 0 0.00 0
Graham 5SSW  04:50 AM 72 58 65% SE810 25 mph 103° @ 1215 AM 83 72 65 38 29.90" 0 0.00 0
Guadalupe Mtns Natl Park  04:50 AM 75 4 6% NW1414 23 mph 306° @ 0137 AM 80 75 7 5 30.05" 0 0.00 0
Haskell 1NW  04:50 AM 68 57 71% S79 23 mph 185° @ 1240 AM 72 68 72 61 29.81" 0 0.00 0
Hobbs NM 5NW  04:50 AM 72 53 52% S1011 17 mph 184° @ 0312 AM 78 71 54 21 29.94" 0 0.00 0
Jayton 1SSE  04:50 AM 72 57 62% SW68 26 mph 143° @ 1205 AM 74 72 63 54 29.84" 0 0.00 0
Lake Alan Henry 1NW  04:50 AM 74 61 63% S914 22 mph 174° @ 0306 AM 76 74 64 47 29.86" 0 0.00 0
Lamesa 2SE  04:50 AM 72 61 69% SE911 20 mph 140° @ 0240 AM 79 72 69 51 29.91" 0 0.00 0
Lomax 1SSE  04:50 AM 75 61 63% S1012 22 mph 162° @ 0345 AM 83 75 63 43 29.89" 0 0.00 0
McCamey 1SSW  04:50 AM 79 61 54% SE1518 28 mph 149° @ 0242 AM 86 79 56 37 29.87" 0 0.00 0
Menard 2NW   04:50 AM 71 65 81% SE67 25 mph 46° @ 0122 AM 79 71 81 61 29.89" 0 0.00 0
Mertzon 3NNE  04:50 AM 66 60 80% S45 23 mph 151° @ 1240 AM 81 66 81 51 29.90" 0 0.00 0
New Home  04:50 AM 72 59 63% S1114 19 mph 111° @ 1258 AM 82 71 63 33 29.92" 0 0.00 0
O'Donnell 1N  04:50 AM 74 58 60% S1317 21 mph 156° @ 0210 AM 81 74 60 39 29.90" 0 0.00 0
Plains 3N  04:50 AM 67 53 63% SE810 16 mph 112° @ 0430 AM 80 66 63 9 29.92" 0 0.00 0
Post 1NE  04:50 AM 74 59 60% S1016 23 mph 129° @ 1210 AM 77 71 60 42 29.88" 0 0.00 0
Rotan 5W  04:50 AM 74 58 57% S1516 31 mph 135° @ 1231 AM 75 73 62 55 29.84" 0 0.00 0
San Angelo 7NW  04:50 AM 71 60 68% S56 21 mph 77° @ 0140 AM 82 71 68 46 29.87" 0 0.00 0
Seagraves 1SW  04:50 AM 68 55 65% S912 18 mph 178° @ 1235 AM 76 67 65 28 29.90" 0 0.00 0
Seminole 2NNE  04:50 AM 70 55 61% SE89 17 mph 187° @ 1220 AM 81 70 61 29 29.91" 0 0.00 0
Sierra Blanca 1SSE  04:50 AM 70 9 9% SW23 13 mph 303° @ 0112 AM 84 62 12 6 30.00" 0 0.00 0
Snyder 3E  04:50 AM 71 58 65% S1217 29 mph 136° @ 0100 AM 75 71 65 58 29.87" 0 0.00 0
Snyder 3SSW  04:50 AM 72 59 63% S1214 25 mph 165° @ 0310 AM 77 72 64 51 29.88" 0 0.00 0
St. Lawrence 5SW  04:50 AM 72 60 67% SE1113 21 mph 166° @ 0145 AM 81 72 67 46 29.91" 0 0.00 0
Stamford 5ESE  04:50 AM 67 62 84% SW67 25 mph 168° @ 1226 AM 71 67 86 66 29.82" 0 0.00 0
Sterling City 4WSW  04:50 AM 72 60 66% SE810 19 mph 101° @ 0307 AM 81 72 66 46 29.90" 0 0.00 0
Sundown 8WSW  04:50 AM 64 54 73% S911 18 mph 181° @ 0200 AM 73 63 73 18 29.92" 0 0.00 0
Sweetwater 11SW   04:50 AM 72 56 57% S1416 32 mph 150° @ 0235 AM 76 72 62 55 29.88" 0 0.00 0
Tahoka 3NNE  04:50 AM 73 59 62% S1315 20 mph 172° @ 0445 AM 79 70 62 38 29.91" 0 0.00 0
Tarzan 2WNW  04:50 AM 75 62 64% S1114 25 mph 157° @ 0335 AM 84 75 64 42 29.90" 0 0.00 0
Tatum NM 2SW  04:50 AM 58 51 81% SE77 14 mph 172° @ 0220 AM 65 58 81 49 29.93" 0 0.00 0
Throckmorton 1SW  04:50 AM 68 58 72% E34 23 mph 214° @ 1213 AM 75 68 72 52 29.84" 0 0.00 0
Van Horn 3ENE  04:50 AM 67 46 47% SW911 16 mph 181° @ 1235 AM 77 66 48 10 29.96" 0 0.00 0
Wall 2E  04:50 AM 74 63 68% S1014 26 mph 63° @ 0115 AM 83 74 68 48 29.88" 0 0.00 0
Weinert 2NNE  04:50 AM 68 60 75% SW67 25 mph 193° @ 1231 AM 72 68 77 61 29.82" 0 0.00 0
Welch  04:50 AM 70 60 70% SE89 20 mph 169° @ 0332 AM 80 70 70 43 29.92" 0 0.00 0

West Texas Mesonet Home   Site Map/Menu  NWS Lubbock Soil Data  Daily Summary Page  24hr Precip  72hr Precip  Google Plot